sensor_id;sensor_type;location;lat;lon;timestamp;P1;durP1;ratioP1;P2;durP2;ratioP2
54627;SDS011;40525;55.926;21.066;2023-06-10T00:01:49;0.70;;;0.30;;
54627;SDS011;40525;55.926;21.066;2023-06-10T00:04:42;2.50;;;0.40;;
54627;SDS011;40525;55.926;21.066;2023-06-10T00:07:36;1.10;;;0.30;;
54627;SDS011;40525;55.926;21.066;2023-06-10T00:10:36;1.50;;;0.60;;
54627;SDS011;40525;55.926;21.066;2023-06-10T00:13:10;0.50;;;0.20;;
54627;SDS011;40525;55.926;21.066;2023-06-10T00:15:57;1.20;;;0.40;;
54627;SDS011;40525;55.926;21.066;2023-06-10T00:18:31;2.00;;;0.40;;
54627;SDS011;40525;55.926;21.066;2023-06-10T00:21:18;0.90;;;0.40;;
54627;SDS011;40525;55.926;21.066;2023-06-10T00:23:58;0.30;;;0.20;;
54627;SDS011;40525;55.926;21.066;2023-06-10T00:26:38;0.60;;;0.40;;
54627;SDS011;40525;55.926;21.066;2023-06-10T00:29:20;4.10;;;0.50;;
54627;SDS011;40525;55.926;21.066;2023-06-10T00:32:00;0.50;;;0.20;;
54627;SDS011;40525;55.926;21.066;2023-06-10T00:34:40;3.50;;;0.40;;
54627;SDS011;40525;55.926;21.066;2023-06-10T00:37:20;3.70;;;0.50;;
54627;SDS011;40525;55.926;21.066;2023-06-10T00:40:01;1.80;;;0.40;;
54627;SDS011;40525;55.926;21.066;2023-06-10T00:42:42;3.20;;;0.50;;
54627;SDS011;40525;55.926;21.066;2023-06-10T00:48:03;0.50;;;0.40;;
54627;SDS011;40525;55.926;21.066;2023-06-10T00:50:47;2.50;;;0.40;;
54627;SDS011;40525;55.926;21.066;2023-06-10T00:53:28;0.50;;;0.30;;
54627;SDS011;40525;55.926;21.066;2023-06-10T00:56:08;1.90;;;0.40;;
54627;SDS011;40525;55.926;21.066;2023-06-10T00:58:49;1.30;;;0.40;;
54627;SDS011;40525;55.926;21.066;2023-06-10T01:01:31;10.30;;;0.70;;
54627;SDS011;40525;55.926;21.066;2023-06-10T01:04:13;3.20;;;0.40;;
54627;SDS011;40525;55.926;21.066;2023-06-10T01:07:15;1.90;;;0.40;;
54627;SDS011;40525;55.926;21.066;2023-06-10T01:10:01;0.70;;;0.40;;
54627;SDS011;40525;55.926;21.066;2023-06-10T01:15:40;2.30;;;0.40;;
54627;SDS011;40525;55.926;21.066;2023-06-10T01:18:21;1.00;;;0.50;;
54627;SDS011;40525;55.926;21.066;2023-06-10T01:21:03;1.30;;;0.50;;
54627;SDS011;40525;55.926;21.066;2023-06-10T01:23:44;1.40;;;0.30;;
54627;SDS011;40525;55.926;21.066;2023-06-10T01:26:32;0.90;;;0.40;;
54627;SDS011;40525;55.926;21.066;2023-06-10T01:29:17;1.50;;;0.40;;
54627;SDS011;40525;55.926;21.066;2023-06-10T01:32:08;2.20;;;0.30;;
54627;SDS011;40525;55.926;21.066;2023-06-10T01:34:49;1.60;;;0.40;;
54627;SDS011;40525;55.926;21.066;2023-06-10T01:37:36;0.80;;;0.30;;
54627;SDS011;40525;55.926;21.066;2023-06-10T01:40:13;1.20;;;0.50;;
54627;SDS011;40525;55.926;21.066;2023-06-10T01:43:01;0.80;;;0.40;;
54627;SDS011;40525;55.926;21.066;2023-06-10T01:45:34;2.00;;;0.50;;
54627;SDS011;40525;55.926;21.066;2023-06-10T01:48:22;2.80;;;1.10;;
54627;SDS011;40525;55.926;21.066;2023-06-10T01:50:56;1.30;;;0.50;;
54627;SDS011;40525;55.926;21.066;2023-06-10T01:53:42;1.60;;;0.30;;
54627;SDS011;40525;55.926;21.066;2023-06-10T01:56:16;0.60;;;0.30;;
54627;SDS011;40525;55.926;21.066;2023-06-10T01:59:02;1.60;;;0.50;;
54627;SDS011;40525;55.926;21.066;2023-06-10T02:01:36;1.80;;;0.20;;
54627;SDS011;40525;55.926;21.066;2023-06-10T02:04:23;0.70;;;0.30;;
54627;SDS011;40525;55.926;21.066;2023-06-10T02:06:58;0.60;;;0.40;;
54627;SDS011;40525;55.926;21.066;2023-06-10T02:09:46;1.50;;;0.40;;
54627;SDS011;40525;55.926;21.066;2023-06-10T02:12:20;1.10;;;0.40;;
54627;SDS011;40525;55.926;21.066;2023-06-10T02:15:07;0.90;;;0.50;;
54627;SDS011;40525;55.926;21.066;2023-06-10T02:17:40;0.50;;;0.40;;
54627;SDS011;40525;55.926;21.066;2023-06-10T02:20:29;0.60;;;0.30;;
54627;SDS011;40525;55.926;21.066;2023-06-10T02:23:02;2.10;;;0.30;;
54627;SDS011;40525;55.926;21.066;2023-06-10T02:25:49;2.00;;;0.30;;
54627;SDS011;40525;55.926;21.066;2023-06-10T02:28:24;3.30;;;1.20;;
54627;SDS011;40525;55.926;21.066;2023-06-10T02:31:11;1.50;;;0.30;;
54627;SDS011;40525;55.926;21.066;2023-06-10T02:33:45;0.90;;;0.40;;
54627;SDS011;40525;55.926;21.066;2023-06-10T02:36:32;0.50;;;0.30;;
54627;SDS011;40525;55.926;21.066;2023-06-10T02:39:06;0.60;;;0.30;;
54627;SDS011;40525;55.926;21.066;2023-06-10T02:41:57;2.50;;;0.40;;
54627;SDS011;40525;55.926;21.066;2023-06-10T02:44:31;0.80;;;0.20;;
54627;SDS011;40525;55.926;21.066;2023-06-10T02:47:20;0.70;;;0.50;;
54627;SDS011;40525;55.926;21.066;2023-06-10T02:49:54;1.00;;;0.40;;
54627;SDS011;40525;55.926;21.066;2023-06-10T02:52:45;0.80;;;0.40;;
54627;SDS011;40525;55.926;21.066;2023-06-10T02:55:21;1.00;;;0.30;;
54627;SDS011;40525;55.926;21.066;2023-06-10T02:58:11;1.60;;;0.40;;
54627;SDS011;40525;55.926;21.066;2023-06-10T03:00:45;0.50;;;0.40;;
54627;SDS011;40525;55.926;21.066;2023-06-10T03:03:33;0.90;;;0.50;;
54627;SDS011;40525;55.926;21.066;2023-06-10T03:06:29;0.80;;;0.60;;
54627;SDS011;40525;55.926;21.066;2023-06-10T03:09:27;0.90;;;0.70;;
54627;SDS011;40525;55.926;21.066;2023-06-10T03:12:01;0.90;;;0.50;;
54627;SDS011;40525;55.926;21.066;2023-06-10T03:14:51;2.80;;;0.40;;
54627;SDS011;40525;55.926;21.066;2023-06-10T03:17:24;3.10;;;0.40;;
54627;SDS011;40525;55.926;21.066;2023-06-10T03:20:11;0.70;;;0.30;;
54627;SDS011;40525;55.926;21.066;2023-06-10T03:22:46;3.70;;;0.70;;
54627;SDS011;40525;55.926;21.066;2023-06-10T03:25:34;5.90;;;0.50;;
54627;SDS011;40525;55.926;21.066;2023-06-10T03:28:09;2.30;;;0.60;;
54627;SDS011;40525;55.926;21.066;2023-06-10T03:30:57;1.60;;;0.40;;
54627;SDS011;40525;55.926;21.066;2023-06-10T03:33:31;0.90;;;0.60;;
54627;SDS011;40525;55.926;21.066;2023-06-10T03:36:19;1.20;;;0.40;;
54627;SDS011;40525;55.926;21.066;2023-06-10T03:38:53;1.00;;;0.40;;
54627;SDS011;40525;55.926;21.066;2023-06-10T03:41:40;1.50;;;0.80;;
54627;SDS011;40525;55.926;21.066;2023-06-10T03:44:14;1.10;;;0.50;;
54627;SDS011;40525;55.926;21.066;2023-06-10T03:47:01;4.60;;;0.60;;
54627;SDS011;40525;55.926;21.066;2023-06-10T03:49:35;1.00;;;0.50;;
54627;SDS011;40525;55.926;21.066;2023-06-10T03:52:23;1.30;;;0.60;;
54627;SDS011;40525;55.926;21.066;2023-06-10T03:54:57;0.60;;;0.30;;
54627;SDS011;40525;55.926;21.066;2023-06-10T03:57:48;0.90;;;0.70;;
54627;SDS011;40525;55.926;21.066;2023-06-10T04:00:22;1.20;;;0.60;;
54627;SDS011;40525;55.926;21.066;2023-06-10T04:03:10;0.60;;;0.40;;
54627;SDS011;40525;55.926;21.066;2023-06-10T04:06:05;2.70;;;0.60;;
54627;SDS011;40525;55.926;21.066;2023-06-10T04:08:39;1.60;;;0.50;;
54627;SDS011;40525;55.926;21.066;2023-06-10T04:11:26;1.50;;;0.60;;
54627;SDS011;40525;55.926;21.066;2023-06-10T04:14:00;0.60;;;0.50;;
54627;SDS011;40525;55.926;21.066;2023-06-10T04:16:48;1.20;;;0.60;;
54627;SDS011;40525;55.926;21.066;2023-06-10T04:19:22;0.60;;;0.50;;
54627;SDS011;40525;55.926;21.066;2023-06-10T04:22:12;0.90;;;0.70;;
54627;SDS011;40525;55.926;21.066;2023-06-10T04:24:45;1.80;;;0.60;;
54627;SDS011;40525;55.926;21.066;2023-06-10T04:27:32;0.70;;;0.50;;
54627;SDS011;40525;55.926;21.066;2023-06-10T04:30:05;0.90;;;0.60;;
54627;SDS011;40525;55.926;21.066;2023-06-10T04:32:55;0.70;;;0.50;;
54627;SDS011;40525;55.926;21.066;2023-06-10T04:35:28;1.00;;;0.70;;
54627;SDS011;40525;55.926;21.066;2023-06-10T04:38:16;1.30;;;0.60;;
54627;SDS011;40525;55.926;21.066;2023-06-10T04:40:50;2.50;;;0.70;;
54627;SDS011;40525;55.926;21.066;2023-06-10T04:43:38;0.80;;;0.60;;
54627;SDS011;40525;55.926;21.066;2023-06-10T04:46:12;1.60;;;0.90;;
54627;SDS011;40525;55.926;21.066;2023-06-10T04:48:58;3.20;;;0.50;;
54627;SDS011;40525;55.926;21.066;2023-06-10T04:51:33;1.60;;;0.50;;
54627;SDS011;40525;55.926;21.066;2023-06-10T04:54:20;1.10;;;0.50;;
54627;SDS011;40525;55.926;21.066;2023-06-10T04:56:54;2.70;;;0.70;;
54627;SDS011;40525;55.926;21.066;2023-06-10T04:59:40;0.90;;;0.50;;
54627;SDS011;40525;55.926;21.066;2023-06-10T05:02:14;1.30;;;0.70;;
54627;SDS011;40525;55.926;21.066;2023-06-10T05:05:00;1.90;;;0.60;;
54627;SDS011;40525;55.926;21.066;2023-06-10T05:07:34;2.20;;;0.70;;
54627;SDS011;40525;55.926;21.066;2023-06-10T05:10:20;2.50;;;0.60;;
54627;SDS011;40525;55.926;21.066;2023-06-10T05:12:54;1.00;;;0.70;;
54627;SDS011;40525;55.926;21.066;2023-06-10T05:15:40;0.80;;;0.60;;
54627;SDS011;40525;55.926;21.066;2023-06-10T05:18:18;0.70;;;0.60;;
54627;SDS011;40525;55.926;21.066;2023-06-10T05:21:04;1.10;;;0.60;;
54627;SDS011;40525;55.926;21.066;2023-06-10T05:23:39;0.70;;;0.50;;
54627;SDS011;40525;55.926;21.066;2023-06-10T05:26:25;1.70;;;0.70;;
54627;SDS011;40525;55.926;21.066;2023-06-10T05:28:59;2.50;;;0.70;;
54627;SDS011;40525;55.926;21.066;2023-06-10T05:31:49;1.20;;;0.60;;
54627;SDS011;40525;55.926;21.066;2023-06-10T05:34:24;2.90;;;0.90;;
54627;SDS011;40525;55.926;21.066;2023-06-10T05:37:12;2.00;;;0.80;;
54627;SDS011;40525;55.926;21.066;2023-06-10T05:39:46;1.30;;;0.60;;
54627;SDS011;40525;55.926;21.066;2023-06-10T05:42:32;1.70;;;0.60;;
54627;SDS011;40525;55.926;21.066;2023-06-10T05:45:06;2.20;;;0.70;;
54627;SDS011;40525;55.926;21.066;2023-06-10T05:47:53;0.60;;;0.50;;
54627;SDS011;40525;55.926;21.066;2023-06-10T05:50:28;0.70;;;0.50;;
54627;SDS011;40525;55.926;21.066;2023-06-10T05:53:17;3.90;;;0.70;;
54627;SDS011;40525;55.926;21.066;2023-06-10T05:55:51;5.30;;;1.30;;
54627;SDS011;40525;55.926;21.066;2023-06-10T05:58:37;1.80;;;0.60;;
54627;SDS011;40525;55.926;21.066;2023-06-10T06:01:11;0.60;;;0.60;;
54627;SDS011;40525;55.926;21.066;2023-06-10T06:03:57;0.90;;;0.60;;
54627;SDS011;40525;55.926;21.066;2023-06-10T06:06:38;1.10;;;0.50;;
54627;SDS011;40525;55.926;21.066;2023-06-10T06:09:18;1.30;;;0.70;;
54627;SDS011;40525;55.926;21.066;2023-06-10T06:11:59;3.40;;;0.70;;
54627;SDS011;40525;55.926;21.066;2023-06-10T06:14:38;1.80;;;0.60;;
54627;SDS011;40525;55.926;21.066;2023-06-10T06:17:13;3.40;;;0.60;;
54627;SDS011;40525;55.926;21.066;2023-06-10T06:19:59;0.70;;;0.60;;
54627;SDS011;40525;55.926;21.066;2023-06-10T06:22:32;0.80;;;0.60;;
54627;SDS011;40525;55.926;21.066;2023-06-10T06:25:19;2.60;;;0.60;;
54627;SDS011;40525;55.926;21.066;2023-06-10T06:27:52;2.00;;;0.70;;
54627;SDS011;40525;55.926;21.066;2023-06-10T06:30:39;3.70;;;0.70;;
54627;SDS011;40525;55.926;21.066;2023-06-10T06:33:13;0.70;;;0.50;;
54627;SDS011;40525;55.926;21.066;2023-06-10T06:36:00;2.20;;;0.70;;
54627;SDS011;40525;55.926;21.066;2023-06-10T06:38:34;1.80;;;0.70;;
54627;SDS011;40525;55.926;21.066;2023-06-10T06:41:22;1.60;;;0.70;;
54627;SDS011;40525;55.926;21.066;2023-06-10T06:43:55;0.70;;;0.60;;
54627;SDS011;40525;55.926;21.066;2023-06-10T06:46:44;0.90;;;0.70;;
54627;SDS011;40525;55.926;21.066;2023-06-10T06:49:18;0.80;;;0.50;;
54627;SDS011;40525;55.926;21.066;2023-06-10T06:52:06;1.60;;;0.60;;
54627;SDS011;40525;55.926;21.066;2023-06-10T06:54:41;1.20;;;0.70;;
54627;SDS011;40525;55.926;21.066;2023-06-10T06:57:28;1.10;;;0.70;;
54627;SDS011;40525;55.926;21.066;2023-06-10T07:00:03;1.10;;;0.50;;
54627;SDS011;40525;55.926;21.066;2023-06-10T07:02:52;0.70;;;0.60;;
54627;SDS011;40525;55.926;21.066;2023-06-10T07:05:27;2.80;;;0.60;;
54627;SDS011;40525;55.926;21.066;2023-06-10T07:08:14;1.80;;;0.50;;
54627;SDS011;40525;55.926;21.066;2023-06-10T07:10:48;0.90;;;0.70;;
54627;SDS011;40525;55.926;21.066;2023-06-10T07:13:35;2.30;;;0.60;;
54627;SDS011;40525;55.926;21.066;2023-06-10T07:16:10;1.90;;;0.60;;
54627;SDS011;40525;55.926;21.066;2023-06-10T07:18:56;1.80;;;0.70;;
54627;SDS011;40525;55.926;21.066;2023-06-10T07:21:31;1.20;;;0.80;;
54627;SDS011;40525;55.926;21.066;2023-06-10T07:24:18;4.30;;;0.90;;
54627;SDS011;40525;55.926;21.066;2023-06-10T07:26:53;2.30;;;0.70;;
54627;SDS011;40525;55.926;21.066;2023-06-10T07:29:40;1.20;;;0.50;;
54627;SDS011;40525;55.926;21.066;2023-06-10T07:32:14;1.00;;;0.70;;
54627;SDS011;40525;55.926;21.066;2023-06-10T07:35:08;0.50;;;0.50;;
54627;SDS011;40525;55.926;21.066;2023-06-10T07:37:44;0.90;;;0.50;;
54627;SDS011;40525;55.926;21.066;2023-06-10T07:40:31;0.60;;;0.50;;
54627;SDS011;40525;55.926;21.066;2023-06-10T07:43:07;1.60;;;0.60;;
54627;SDS011;40525;55.926;21.066;2023-06-10T07:45:54;2.70;;;0.60;;
54627;SDS011;40525;55.926;21.066;2023-06-10T07:48:27;1.50;;;0.50;;
54627;SDS011;40525;55.926;21.066;2023-06-10T07:51:14;1.40;;;0.60;;
54627;SDS011;40525;55.926;21.066;2023-06-10T07:53:52;1.00;;;0.50;;
54627;SDS011;40525;55.926;21.066;2023-06-10T07:56:40;2.40;;;0.70;;
54627;SDS011;40525;55.926;21.066;2023-06-10T07:59:13;2.60;;;0.60;;
54627;SDS011;40525;55.926;21.066;2023-06-10T08:02:01;1.10;;;0.50;;
54627;SDS011;40525;55.926;21.066;2023-06-10T08:04:36;1.10;;;0.70;;
54627;SDS011;40525;55.926;21.066;2023-06-10T08:07:31;1.80;;;0.60;;
54627;SDS011;40525;55.926;21.066;2023-06-10T08:10:25;0.70;;;0.50;;
54627;SDS011;40525;55.926;21.066;2023-06-10T08:13:00;1.20;;;0.60;;
54627;SDS011;40525;55.926;21.066;2023-06-10T08:15:47;3.00;;;0.60;;
54627;SDS011;40525;55.926;21.066;2023-06-10T08:18:24;1.50;;;0.50;;
54627;SDS011;40525;55.926;21.066;2023-06-10T08:21:10;0.90;;;0.50;;
54627;SDS011;40525;55.926;21.066;2023-06-10T08:23:44;0.80;;;0.70;;
54627;SDS011;40525;55.926;21.066;2023-06-10T08:26:31;1.50;;;0.50;;
54627;SDS011;40525;55.926;21.066;2023-06-10T08:29:07;5.20;;;0.80;;
54627;SDS011;40525;55.926;21.066;2023-06-10T08:31:55;0.90;;;0.60;;
54627;SDS011;40525;55.926;21.066;2023-06-10T08:34:29;0.60;;;0.60;;
54627;SDS011;40525;55.926;21.066;2023-06-10T08:37:16;1.00;;;0.70;;
54627;SDS011;40525;55.926;21.066;2023-06-10T08:39:50;2.10;;;0.50;;
54627;SDS011;40525;55.926;21.066;2023-06-10T08:42:39;0.80;;;0.60;;
54627;SDS011;40525;55.926;21.066;2023-06-10T08:45:17;3.30;;;0.80;;
54627;SDS011;40525;55.926;21.066;2023-06-10T08:48:04;2.70;;;0.60;;
54627;SDS011;40525;55.926;21.066;2023-06-10T08:50:42;1.00;;;0.60;;
54627;SDS011;40525;55.926;21.066;2023-06-10T08:53:29;1.20;;;0.70;;
54627;SDS011;40525;55.926;21.066;2023-06-10T08:56:05;1.80;;;0.80;;
54627;SDS011;40525;55.926;21.066;2023-06-10T08:58:52;2.60;;;0.80;;
54627;SDS011;40525;55.926;21.066;2023-06-10T09:01:26;3.50;;;0.80;;
54627;SDS011;40525;55.926;21.066;2023-06-10T09:04:15;1.40;;;0.70;;
54627;SDS011;40525;55.926;21.066;2023-06-10T09:07:09;1.80;;;0.70;;
54627;SDS011;40525;55.926;21.066;2023-06-10T09:10:04;4.00;;;0.60;;
54627;SDS011;40525;55.926;21.066;2023-06-10T09:12:40;1.20;;;0.60;;
54627;SDS011;40525;55.926;21.066;2023-06-10T09:15:34;1.50;;;0.70;;
54627;SDS011;40525;55.926;21.066;2023-06-10T09:18:28;27.20;;;2.30;;
54627;SDS011;40525;55.926;21.066;2023-06-10T09:21:23;1.50;;;0.90;;
54627;SDS011;40525;55.926;21.066;2023-06-10T09:23:57;1.10;;;0.80;;
54627;SDS011;40525;55.926;21.066;2023-06-10T09:26:45;1.20;;;0.90;;
54627;SDS011;40525;55.926;21.066;2023-06-10T09:29:44;2.00;;;0.70;;
54627;SDS011;40525;55.926;21.066;2023-06-10T09:32:45;2.00;;;0.60;;
54627;SDS011;40525;55.926;21.066;2023-06-10T09:35:19;1.90;;;0.60;;
54627;SDS011;40525;55.926;21.066;2023-06-10T09:38:08;0.70;;;0.60;;
54627;SDS011;40525;55.926;21.066;2023-06-10T09:40:51;5.00;;;0.80;;
54627;SDS011;40525;55.926;21.066;2023-06-10T09:43:43;2.90;;;0.90;;
54627;SDS011;40525;55.926;21.066;2023-06-10T09:46:19;3.40;;;0.70;;
54627;SDS011;40525;55.926;21.066;2023-06-10T09:49:06;3.50;;;0.80;;
54627;SDS011;40525;55.926;21.066;2023-06-10T09:51:49;1.20;;;0.80;;
54627;SDS011;40525;55.926;21.066;2023-06-10T09:54:41;1.90;;;0.90;;
54627;SDS011;40525;55.926;21.066;2023-06-10T09:57:20;3.00;;;1.10;;
54627;SDS011;40525;55.926;21.066;2023-06-10T10:00:09;1.10;;;0.60;;
54627;SDS011;40525;55.926;21.066;2023-06-10T10:05:36;21.20;;;1.90;;
54627;SDS011;40525;55.926;21.066;2023-06-10T10:08:10;2.00;;;0.60;;
54627;SDS011;40525;55.926;21.066;2023-06-10T10:10:57;4.60;;;0.80;;
54627;SDS011;40525;55.926;21.066;2023-06-10T10:13:35;1.70;;;0.90;;
54627;SDS011;40525;55.926;21.066;2023-06-10T10:16:26;1.90;;;0.90;;
54627;SDS011;40525;55.926;21.066;2023-06-10T10:19:18;1.80;;;0.80;;
54627;SDS011;40525;55.926;21.066;2023-06-10T10:22:10;5.20;;;1.10;;
54627;SDS011;40525;55.926;21.066;2023-06-10T10:25:13;1.60;;;0.80;;
54627;SDS011;40525;55.926;21.066;2023-06-10T10:28:05;2.20;;;0.70;;
54627;SDS011;40525;55.926;21.066;2023-06-10T10:30:50;2.00;;;0.80;;
54627;SDS011;40525;55.926;21.066;2023-06-10T10:33:36;2.00;;;0.70;;
54627;SDS011;40525;55.926;21.066;2023-06-10T10:39:02;1.50;;;0.80;;
54627;SDS011;40525;55.926;21.066;2023-06-10T10:41:44;2.00;;;0.80;;
54627;SDS011;40525;55.926;21.066;2023-06-10T10:44:25;2.00;;;1.00;;
54627;SDS011;40525;55.926;21.066;2023-06-10T10:47:09;3.00;;;1.20;;
54627;SDS011;40525;55.926;21.066;2023-06-10T10:49:50;1.70;;;0.80;;
54627;SDS011;40525;55.926;21.066;2023-06-10T10:52:46;0.80;;;0.80;;
54627;SDS011;40525;55.926;21.066;2023-06-10T10:55:31;2.20;;;0.70;;
54627;SDS011;40525;55.926;21.066;2023-06-10T10:58:12;3.10;;;1.00;;
54627;SDS011;40525;55.926;21.066;2023-06-10T11:00:53;3.40;;;0.90;;
54627;SDS011;40525;55.926;21.066;2023-06-10T11:03:33;1.30;;;0.70;;
54627;SDS011;40525;55.926;21.066;2023-06-10T11:06:39;1.70;;;0.90;;
54627;SDS011;40525;55.926;21.066;2023-06-10T11:09:33;6.20;;;0.90;;
54627;SDS011;40525;55.926;21.066;2023-06-10T11:15:19;2.10;;;0.70;;
54627;SDS011;40525;55.926;21.066;2023-06-10T11:20:51;1.60;;;0.60;;
54627;SDS011;40525;55.926;21.066;2023-06-10T11:23:40;4.10;;;0.70;;
54627;SDS011;40525;55.926;21.066;2023-06-10T11:26:15;2.50;;;0.90;;
54627;SDS011;40525;55.926;21.066;2023-06-10T11:29:07;1.10;;;0.60;;
54627;SDS011;40525;55.926;21.066;2023-06-10T11:31:46;2.10;;;0.70;;
54627;SDS011;40525;55.926;21.066;2023-06-10T11:34:36;2.50;;;0.70;;
54627;SDS011;40525;55.926;21.066;2023-06-10T11:37:09;1.80;;;0.80;;
54627;SDS011;40525;55.926;21.066;2023-06-10T11:39:56;12.70;;;1.20;;
54627;SDS011;40525;55.926;21.066;2023-06-10T11:42:29;2.70;;;0.70;;
54627;SDS011;40525;55.926;21.066;2023-06-10T11:45:17;2.40;;;1.10;;
54627;SDS011;40525;55.926;21.066;2023-06-10T11:47:57;1.40;;;0.90;;
54627;SDS011;40525;55.926;21.066;2023-06-10T11:50:44;2.40;;;0.90;;
54627;SDS011;40525;55.926;21.066;2023-06-10T11:53:18;2.40;;;0.90;;
54627;SDS011;40525;55.926;21.066;2023-06-10T11:56:04;2.70;;;1.00;;
54627;SDS011;40525;55.926;21.066;2023-06-10T11:58:39;2.40;;;0.90;;
54627;SDS011;40525;55.926;21.066;2023-06-10T12:01:32;3.00;;;0.70;;
54627;SDS011;40525;55.926;21.066;2023-06-10T12:04:11;2.50;;;0.90;;
54627;SDS011;40525;55.926;21.066;2023-06-10T12:06:58;7.20;;;1.30;;
54627;SDS011;40525;55.926;21.066;2023-06-10T12:09:32;6.00;;;1.10;;
54627;SDS011;40525;55.926;21.066;2023-06-10T12:12:18;5.10;;;0.80;;
54627;SDS011;40525;55.926;21.066;2023-06-10T12:14:59;1.50;;;1.00;;
54627;SDS011;40525;55.926;21.066;2023-06-10T12:17:47;1.50;;;0.70;;
54627;SDS011;40525;55.926;21.066;2023-06-10T12:20:25;1.80;;;0.60;;
54627;SDS011;40525;55.926;21.066;2023-06-10T12:23:19;2.10;;;0.80;;
54627;SDS011;40525;55.926;21.066;2023-06-10T12:25:54;2.80;;;0.90;;
54627;SDS011;40525;55.926;21.066;2023-06-10T12:28:50;1.50;;;1.00;;
54627;SDS011;40525;55.926;21.066;2023-06-10T12:31:24;1.60;;;0.80;;
54627;SDS011;40525;55.926;21.066;2023-06-10T12:34:10;2.30;;;0.90;;
54627;SDS011;40525;55.926;21.066;2023-06-10T12:36:48;1.70;;;1.10;;
54627;SDS011;40525;55.926;21.066;2023-06-10T12:39:35;1.20;;;0.90;;
54627;SDS011;40525;55.926;21.066;2023-06-10T12:42:09;1.40;;;0.90;;
54627;SDS011;40525;55.926;21.066;2023-06-10T12:44:56;2.70;;;0.70;;
54627;SDS011;40525;55.926;21.066;2023-06-10T12:47:34;2.50;;;1.00;;
54627;SDS011;40525;55.926;21.066;2023-06-10T12:50:22;1.20;;;0.90;;
54627;SDS011;40525;55.926;21.066;2023-06-10T12:52:56;3.20;;;0.90;;
54627;SDS011;40525;55.926;21.066;2023-06-10T12:55:42;1.70;;;0.90;;
54627;SDS011;40525;55.926;21.066;2023-06-10T12:58:22;9.40;;;1.20;;
54627;SDS011;40525;55.926;21.066;2023-06-10T13:01:09;3.30;;;1.20;;
54627;SDS011;40525;55.926;21.066;2023-06-10T13:03:44;1.40;;;0.90;;
54627;SDS011;40525;55.926;21.066;2023-06-10T13:06:30;2.70;;;0.90;;
54627;SDS011;40525;55.926;21.066;2023-06-10T13:09:05;4.40;;;1.20;;
54627;SDS011;40525;55.926;21.066;2023-06-10T13:11:52;2.30;;;0.80;;
54627;SDS011;40525;55.926;21.066;2023-06-10T13:14:26;1.30;;;1.00;;
54627;SDS011;40525;55.926;21.066;2023-06-10T13:17:12;2.90;;;0.80;;
54627;SDS011;40525;55.926;21.066;2023-06-10T13:19:46;3.40;;;0.90;;
54627;SDS011;40525;55.926;21.066;2023-06-10T13:22:33;2.80;;;1.00;;
54627;SDS011;40525;55.926;21.066;2023-06-10T13:25:09;1.60;;;0.90;;
54627;SDS011;40525;55.926;21.066;2023-06-10T13:27:56;2.30;;;0.90;;
54627;SDS011;40525;55.926;21.066;2023-06-10T13:30:30;2.40;;;1.00;;
54627;SDS011;40525;55.926;21.066;2023-06-10T13:33:16;2.50;;;0.90;;
54627;SDS011;40525;55.926;21.066;2023-06-10T13:35:50;4.80;;;1.20;;
54627;SDS011;40525;55.926;21.066;2023-06-10T13:38:37;3.60;;;1.20;;
54627;SDS011;40525;55.926;21.066;2023-06-10T13:41:11;2.10;;;1.20;;
54627;SDS011;40525;55.926;21.066;2023-06-10T13:43:57;2.20;;;1.20;;
54627;SDS011;40525;55.926;21.066;2023-06-10T13:46:31;1.20;;;1.00;;
54627;SDS011;40525;55.926;21.066;2023-06-10T13:49:18;4.90;;;1.00;;
54627;SDS011;40525;55.926;21.066;2023-06-10T13:51:53;2.30;;;1.00;;
54627;SDS011;40525;55.926;21.066;2023-06-10T13:54:39;3.40;;;0.80;;
54627;SDS011;40525;55.926;21.066;2023-06-10T13:57:13;5.10;;;1.20;;
54627;SDS011;40525;55.926;21.066;2023-06-10T14:00:00;2.10;;;0.90;;
54627;SDS011;40525;55.926;21.066;2023-06-10T14:02:34;1.70;;;1.30;;
54627;SDS011;40525;55.926;21.066;2023-06-10T14:05:21;3.50;;;1.00;;
54627;SDS011;40525;55.926;21.066;2023-06-10T14:07:57;1.70;;;1.00;;
54627;SDS011;40525;55.926;21.066;2023-06-10T14:10:44;2.30;;;0.90;;
54627;SDS011;40525;55.926;21.066;2023-06-10T14:13:18;2.00;;;1.10;;
54627;SDS011;40525;55.926;21.066;2023-06-10T14:16:05;6.50;;;1.20;;
54627;SDS011;40525;55.926;21.066;2023-06-10T14:18:39;5.40;;;1.10;;
54627;SDS011;40525;55.926;21.066;2023-06-10T14:21:25;6.20;;;1.00;;
54627;SDS011;40525;55.926;21.066;2023-06-10T14:23:59;2.90;;;1.00;;
54627;SDS011;40525;55.926;21.066;2023-06-10T14:26:45;2.50;;;1.00;;
54627;SDS011;40525;55.926;21.066;2023-06-10T14:29:19;3.10;;;1.10;;
54627;SDS011;40525;55.926;21.066;2023-06-10T14:32:08;1.80;;;1.00;;
54627;SDS011;40525;55.926;21.066;2023-06-10T14:34:43;2.90;;;1.00;;
54627;SDS011;40525;55.926;21.066;2023-06-10T14:37:29;7.40;;;1.30;;
54627;SDS011;40525;55.926;21.066;2023-06-10T14:40:06;3.00;;;1.30;;
54627;SDS011;40525;55.926;21.066;2023-06-10T14:42:53;4.10;;;1.20;;
54627;SDS011;40525;55.926;21.066;2023-06-10T14:45:27;5.10;;;1.20;;
54627;SDS011;40525;55.926;21.066;2023-06-10T14:48:15;1.80;;;1.20;;
54627;SDS011;40525;55.926;21.066;2023-06-10T14:50:49;3.20;;;1.70;;
54627;SDS011;40525;55.926;21.066;2023-06-10T14:53:35;4.00;;;1.70;;
54627;SDS011;40525;55.926;21.066;2023-06-10T14:56:09;6.70;;;1.50;;
54627;SDS011;40525;55.926;21.066;2023-06-10T14:58:55;3.00;;;1.20;;
54627;SDS011;40525;55.926;21.066;2023-06-10T15:01:29;1.90;;;1.10;;
54627;SDS011;40525;55.926;21.066;2023-06-10T15:04:15;4.40;;;1.40;;
54627;SDS011;40525;55.926;21.066;2023-06-10T15:07:09;2.20;;;1.10;;
54627;SDS011;40525;55.926;21.066;2023-06-10T15:10:04;3.20;;;1.20;;
54627;SDS011;40525;55.926;21.066;2023-06-10T15:12:39;6.30;;;1.20;;
54627;SDS011;40525;55.926;21.066;2023-06-10T15:15:26;3.30;;;1.40;;
54627;SDS011;40525;55.926;21.066;2023-06-10T15:18:01;2.50;;;0.90;;
54627;SDS011;40525;55.926;21.066;2023-06-10T15:20:48;5.80;;;2.00;;
54627;SDS011;40525;55.926;21.066;2023-06-10T15:23:22;12.50;;;2.20;;
54627;SDS011;40525;55.926;21.066;2023-06-10T15:26:08;3.00;;;1.30;;
54627;SDS011;40525;55.926;21.066;2023-06-10T15:28:42;1.60;;;1.50;;
54627;SDS011;40525;55.926;21.066;2023-06-10T15:31:28;2.80;;;1.20;;
54627;SDS011;40525;55.926;21.066;2023-06-10T15:34:03;1.70;;;1.10;;
54627;SDS011;40525;55.926;21.066;2023-06-10T15:36:50;2.30;;;1.30;;
54627;SDS011;40525;55.926;21.066;2023-06-10T15:39:24;2.10;;;1.00;;
54627;SDS011;40525;55.926;21.066;2023-06-10T15:42:11;2.30;;;1.00;;
54627;SDS011;40525;55.926;21.066;2023-06-10T15:44:45;2.00;;;1.00;;
54627;SDS011;40525;55.926;21.066;2023-06-10T15:47:32;25.90;;;2.40;;
54627;SDS011;40525;55.926;21.066;2023-06-10T15:50:06;2.20;;;1.20;;
54627;SDS011;40525;55.926;21.066;2023-06-10T15:52:53;3.00;;;1.00;;
54627;SDS011;40525;55.926;21.066;2023-06-10T15:55:27;2.20;;;1.10;;
54627;SDS011;40525;55.926;21.066;2023-06-10T15:58:13;1.40;;;1.10;;
54627;SDS011;40525;55.926;21.066;2023-06-10T16:00:46;2.00;;;1.20;;
54627;SDS011;40525;55.926;21.066;2023-06-10T16:03:33;5.30;;;1.30;;
54627;SDS011;40525;55.926;21.066;2023-06-10T16:06:07;4.90;;;1.20;;
54627;SDS011;40525;55.926;21.066;2023-06-10T16:08:55;1.00;;;0.80;;
54627;SDS011;40525;55.926;21.066;2023-06-10T16:11:30;2.90;;;1.00;;
54627;SDS011;40525;55.926;21.066;2023-06-10T16:14:17;2.30;;;0.90;;
54627;SDS011;40525;55.926;21.066;2023-06-10T16:16:51;2.40;;;0.90;;
54627;SDS011;40525;55.926;21.066;2023-06-10T16:19:38;2.10;;;1.00;;